sensor_id;sensor_type;location;lat;lon;timestamp;pressure;altitude;pressure_sealevel;temperature;humidity
48668;BME280;34453;52.198;5.004;2023-04-20T00:00:17;102613.56;;;6.77;100.00
48668;BME280;34453;52.198;5.004;2023-04-20T00:02:44;102600.69;;;6.74;100.00
48668;BME280;34453;52.198;5.004;2023-04-20T00:05:10;102608.88;;;6.47;100.00
48668;BME280;34453;52.198;5.004;2023-04-20T00:07:37;102597.97;;;6.39;100.00
48668;BME280;34453;52.198;5.004;2023-04-20T00:10:06;102599.53;;;6.24;100.00
48668;BME280;34453;52.198;5.004;2023-04-20T00:12:32;102590.44;;;5.95;100.00
48668;BME280;34453;52.198;5.004;2023-04-20T00:14:57;102586.03;;;5.76;100.00
48668;BME280;34453;52.198;5.004;2023-04-20T00:17:23;102595.19;;;5.65;100.00
48668;BME280;34453;52.198;5.004;2023-04-20T00:19:48;102586.44;;;5.47;100.00
48668;BME280;34453;52.198;5.004;2023-04-20T00:22:13;102577.84;;;5.45;100.00
48668;BME280;34453;52.198;5.004;2023-04-20T00:24:39;102580.09;;;5.54;100.00
48668;BME280;34453;52.198;5.004;2023-04-20T00:27:04;102579.81;;;5.60;100.00
48668;BME280;34453;52.198;5.004;2023-04-20T00:29:30;102580.34;;;5.48;100.00
48668;BME280;34453;52.198;5.004;2023-04-20T00:31:55;102565.16;;;5.38;100.00
48668;BME280;34453;52.198;5.004;2023-04-20T00:34:21;102574.50;;;5.22;100.00
48668;BME280;34453;52.198;5.004;2023-04-20T00:36:46;102566.25;;;5.12;100.00
48668;BME280;34453;52.198;5.004;2023-04-20T00:39:12;102558.41;;;5.14;100.00
48668;BME280;34453;52.198;5.004;2023-04-20T00:41:37;102552.53;;;5.09;100.00
48668;BME280;34453;52.198;5.004;2023-04-20T00:44:03;102554.88;;;4.94;100.00
48668;BME280;34453;52.198;5.004;2023-04-20T00:46:28;102548.38;;;4.84;100.00
48668;BME280;34453;52.198;5.004;2023-04-20T00:48:55;102555.03;;;4.91;100.00
48668;BME280;34453;52.198;5.004;2023-04-20T00:51:22;102541.13;;;4.92;100.00
48668;BME280;34453;52.198;5.004;2023-04-20T00:53:48;102544.97;;;5.04;100.00
48668;BME280;34453;52.198;5.004;2023-04-20T00:56:14;102539.13;;;4.99;100.00
48668;BME280;34453;52.198;5.004;2023-04-20T00:58:41;102531.34;;;4.99;100.00
48668;BME280;34453;52.198;5.004;2023-04-20T01:01:08;102523.75;;;4.94;100.00
48668;BME280;34453;52.198;5.004;2023-04-20T01:03:34;102523.81;;;4.93;100.00
48668;BME280;34453;52.198;5.004;2023-04-20T01:06:00;102526.34;;;4.94;100.00
48668;BME280;34453;52.198;5.004;2023-04-20T01:08:27;102518.44;;;4.97;100.00
48668;BME280;34453;52.198;5.004;2023-04-20T01:10:55;102518.50;;;4.96;100.00
48668;BME280;34453;52.198;5.004;2023-04-20T01:13:21;102510.66;;;4.97;100.00
48668;BME280;34453;52.198;5.004;2023-04-20T01:15:47;102511.31;;;5.03;100.00
48668;BME280;34453;52.198;5.004;2023-04-20T01:18:13;102495.75;;;5.03;100.00
48668;BME280;34453;52.198;5.004;2023-04-20T01:20:38;102489.38;;;5.10;100.00
48668;BME280;34453;52.198;5.004;2023-04-20T01:23:04;102482.19;;;5.16;100.00
48668;BME280;34453;52.198;5.004;2023-04-20T01:25:29;102478.66;;;5.17;100.00
48668;BME280;34453;52.198;5.004;2023-04-20T01:27:55;102476.16;;;5.16;100.00
48668;BME280;34453;52.198;5.004;2023-04-20T01:30:20;102472.66;;;5.17;100.00
48668;BME280;34453;52.198;5.004;2023-04-20T01:32:46;102467.59;;;5.14;100.00
48668;BME280;34453;52.198;5.004;2023-04-20T01:35:11;102471.09;;;5.13;100.00
48668;BME280;34453;52.198;5.004;2023-04-20T01:37:38;102467.72;;;5.11;100.00
48668;BME280;34453;52.198;5.004;2023-04-20T01:40:04;102465.84;;;4.94;100.00
48668;BME280;34453;52.198;5.004;2023-04-20T01:42:30;102458.28;;;4.89;100.00
48668;BME280;34453;52.198;5.004;2023-04-20T01:44:56;102463.16;;;4.75;100.00
48668;BME280;34453;52.198;5.004;2023-04-20T01:47:21;102461.94;;;4.63;100.00
48668;BME280;34453;52.198;5.004;2023-04-20T01:49:47;102453.81;;;4.71;100.00
48668;BME280;34453;52.198;5.004;2023-04-20T01:52:12;102444.09;;;4.55;100.00
48668;BME280;34453;52.198;5.004;2023-04-20T01:54:37;102450.06;;;4.57;100.00
48668;BME280;34453;52.198;5.004;2023-04-20T01:57:03;102447.22;;;4.64;100.00
48668;BME280;34453;52.198;5.004;2023-04-20T01:59:28;102442.75;;;4.67;100.00
48668;BME280;34453;52.198;5.004;2023-04-20T02:01:54;102431.38;;;4.71;100.00
48668;BME280;34453;52.198;5.004;2023-04-20T02:04:19;102429.66;;;4.91;100.00
48668;BME280;34453;52.198;5.004;2023-04-20T02:06:45;102427.38;;;5.04;100.00
48668;BME280;34453;52.198;5.004;2023-04-20T02:09:10;102428.38;;;5.20;100.00
48668;BME280;34453;52.198;5.004;2023-04-20T02:11:36;102422.16;;;5.24;100.00
48668;BME280;34453;52.198;5.004;2023-04-20T02:14:01;102421.19;;;5.27;100.00
48668;BME280;34453;52.198;5.004;2023-04-20T02:16:27;102410.22;;;5.20;100.00
48668;BME280;34453;52.198;5.004;2023-04-20T02:18:54;102415.72;;;5.14;100.00
48668;BME280;34453;52.198;5.004;2023-04-20T02:21:19;102406.16;;;5.14;100.00
48668;BME280;34453;52.198;5.004;2023-04-20T02:23:45;102405.50;;;5.30;100.00
48668;BME280;34453;52.198;5.004;2023-04-20T02:26:10;102409.00;;;5.48;100.00
48668;BME280;34453;52.198;5.004;2023-04-20T02:28:36;102404.16;;;5.59;100.00
48668;BME280;34453;52.198;5.004;2023-04-20T02:31:01;102403.94;;;5.82;100.00
48668;BME280;34453;52.198;5.004;2023-04-20T02:33:26;102400.63;;;5.98;100.00
48668;BME280;34453;52.198;5.004;2023-04-20T02:35:52;102396.13;;;6.20;100.00
48668;BME280;34453;52.198;5.004;2023-04-20T02:38:17;102393.44;;;6.39;100.00
48668;BME280;34453;52.198;5.004;2023-04-20T02:40:43;102381.44;;;6.54;100.00
48668;BME280;34453;52.198;5.004;2023-04-20T02:43:08;102373.94;;;6.66;100.00
48668;BME280;34453;52.198;5.004;2023-04-20T02:45:34;102373.47;;;6.75;100.00
48668;BME280;34453;52.198;5.004;2023-04-20T02:47:59;102372.97;;;6.84;100.00
48668;BME280;34453;52.198;5.004;2023-04-20T02:50:25;102362.25;;;6.90;100.00
48668;BME280;34453;52.198;5.004;2023-04-20T02:52:50;102359.34;;;6.96;100.00
48668;BME280;34453;52.198;5.004;2023-04-20T02:55:16;102352.63;;;6.92;100.00
48668;BME280;34453;52.198;5.004;2023-04-20T02:57:41;102355.06;;;6.78;100.00
48668;BME280;34453;52.198;5.004;2023-04-20T03:00:07;102344.94;;;6.89;100.00
48668;BME280;34453;52.198;5.004;2023-04-20T03:02:33;102340.19;;;6.97;100.00
48668;BME280;34453;52.198;5.004;2023-04-20T03:05:01;102346.00;;;7.02;100.00
48668;BME280;34453;52.198;5.004;2023-04-20T03:07:26;102341.66;;;7.03;100.00
48668;BME280;34453;52.198;5.004;2023-04-20T03:09:51;102338.03;;;7.05;100.00
48668;BME280;34453;52.198;5.004;2023-04-20T03:12:17;102331.91;;;7.06;100.00
48668;BME280;34453;52.198;5.004;2023-04-20T03:14:43;102334.34;;;7.10;100.00
48668;BME280;34453;52.198;5.004;2023-04-20T03:17:08;102323.38;;;7.20;100.00
48668;BME280;34453;52.198;5.004;2023-04-20T03:19:34;102321.84;;;7.32;100.00
48668;BME280;34453;52.198;5.004;2023-04-20T03:22:00;102319.69;;;7.40;100.00
48668;BME280;34453;52.198;5.004;2023-04-20T03:24:25;102308.00;;;7.47;100.00
48668;BME280;34453;52.198;5.004;2023-04-20T03:26:50;102307.56;;;7.55;100.00
48668;BME280;34453;52.198;5.004;2023-04-20T03:29:16;102307.41;;;7.58;100.00
48668;BME280;34453;52.198;5.004;2023-04-20T03:31:41;102300.34;;;7.60;100.00
48668;BME280;34453;52.198;5.004;2023-04-20T03:34:07;102293.94;;;7.66;100.00
48668;BME280;34453;52.198;5.004;2023-04-20T03:36:32;102303.94;;;7.74;100.00
48668;BME280;34453;52.198;5.004;2023-04-20T03:38:58;102303.94;;;7.74;100.00
48668;BME280;34453;52.198;5.004;2023-04-20T03:41:23;102293.06;;;7.81;100.00
48668;BME280;34453;52.198;5.004;2023-04-20T03:43:49;102289.38;;;7.85;100.00
48668;BME280;34453;52.198;5.004;2023-04-20T03:46:14;102290.00;;;7.89;100.00
48668;BME280;34453;52.198;5.004;2023-04-20T03:48:40;102285.56;;;7.91;100.00
48668;BME280;34453;52.198;5.004;2023-04-20T03:51:05;102280.94;;;7.96;100.00
48668;BME280;34453;52.198;5.004;2023-04-20T03:53:31;102281.78;;;7.97;100.00
48668;BME280;34453;52.198;5.004;2023-04-20T03:55:56;102288.47;;;8.01;100.00
48668;BME280;34453;52.198;5.004;2023-04-20T03:58:21;102269.22;;;8.03;100.00
48668;BME280;34453;52.198;5.004;2023-04-20T04:00:47;102275.00;;;8.08;100.00
48668;BME280;34453;52.198;5.004;2023-04-20T04:03:13;102280.97;;;8.10;100.00
48668;BME280;34453;52.198;5.004;2023-04-20T04:05:39;102272.31;;;8.10;100.00
48668;BME280;34453;52.198;5.004;2023-04-20T04:08:05;102270.81;;;8.06;100.00
48668;BME280;34453;52.198;5.004;2023-04-20T04:10:31;102268.75;;;8.11;100.00
48668;BME280;34453;52.198;5.004;2023-04-20T04:12:56;102269.97;;;8.05;100.00
48668;BME280;34453;52.198;5.004;2023-04-20T04:15:22;102261.56;;;8.00;100.00
48668;BME280;34453;52.198;5.004;2023-04-20T04:17:47;102248.28;;;8.05;100.00
48668;BME280;34453;52.198;5.004;2023-04-20T04:20:13;102253.03;;;7.98;100.00
48668;BME280;34453;52.198;5.004;2023-04-20T04:22:39;102251.50;;;7.94;100.00
48668;BME280;34453;52.198;5.004;2023-04-20T04:25:05;102241.53;;;7.86;100.00
48668;BME280;34453;52.198;5.004;2023-04-20T04:27:31;102237.41;;;7.82;100.00
48668;BME280;34453;52.198;5.004;2023-04-20T04:30:03;102241.53;;;7.86;100.00
48668;BME280;34453;52.198;5.004;2023-04-20T04:32:28;102235.22;;;7.91;100.00
48668;BME280;34453;52.198;5.004;2023-04-20T04:34:54;102235.00;;;7.94;100.00
48668;BME280;34453;52.198;5.004;2023-04-20T04:37:20;102229.66;;;7.97;100.00
48668;BME280;34453;52.198;5.004;2023-04-20T04:39:46;102230.56;;;7.96;100.00
48668;BME280;34453;52.198;5.004;2023-04-20T04:42:11;102227.94;;;7.96;100.00
48668;BME280;34453;52.198;5.004;2023-04-20T04:44:37;102230.47;;;7.97;100.00
48668;BME280;34453;52.198;5.004;2023-04-20T04:47:04;102219.97;;;7.99;100.00
48668;BME280;34453;52.198;5.004;2023-04-20T04:49:30;102215.31;;;8.04;100.00
48668;BME280;34453;52.198;5.004;2023-04-20T04:51:56;102216.16;;;8.04;100.00
48668;BME280;34453;52.198;5.004;2023-04-20T04:54:21;102216.91;;;8.06;100.00
48668;BME280;34453;52.198;5.004;2023-04-20T04:56:47;102211.59;;;8.08;100.00
48668;BME280;34453;52.198;5.004;2023-04-20T04:59:12;102210.66;;;8.09;100.00
48668;BME280;34453;52.198;5.004;2023-04-20T05:01:37;102207.13;;;8.10;100.00
48668;BME280;34453;52.198;5.004;2023-04-20T05:04:03;102209.75;;;8.10;100.00
48668;BME280;34453;52.198;5.004;2023-04-20T05:06:28;102208.16;;;8.07;100.00
48668;BME280;34453;52.198;5.004;2023-04-20T05:08:54;102205.34;;;8.10;100.00
48668;BME280;34453;52.198;5.004;2023-04-20T05:11:19;102198.22;;;8.14;100.00
48668;BME280;34453;52.198;5.004;2023-04-20T05:13:45;102187.38;;;8.20;100.00
48668;BME280;34453;52.198;5.004;2023-04-20T05:16:10;102199.44;;;8.23;100.00
48668;BME280;34453;52.198;5.004;2023-04-20T05:18:36;102185.44;;;8.24;100.00
48668;BME280;34453;52.198;5.004;2023-04-20T05:21:01;102187.38;;;8.20;100.00
48668;BME280;34453;52.198;5.004;2023-04-20T05:23:26;102200.63;;;8.17;100.00
48668;BME280;34453;52.198;5.004;2023-04-20T05:25:52;102192.59;;;8.20;100.00
48668;BME280;34453;52.198;5.004;2023-04-20T05:28:17;102202.31;;;8.18;100.00
48668;BME280;34453;52.198;5.004;2023-04-20T05:30:43;102204.16;;;8.16;100.00
48668;BME280;34453;52.198;5.004;2023-04-20T05:33:08;102207.53;;;8.18;100.00
48668;BME280;34453;52.198;5.004;2023-04-20T05:35:34;102213.75;;;8.16;100.00
48668;BME280;34453;52.198;5.004;2023-04-20T05:38:00;102212.81;;;8.17;100.00
48668;BME280;34453;52.198;5.004;2023-04-20T05:40:28;102208.72;;;8.13;100.00
48668;BME280;34453;52.198;5.004;2023-04-20T05:42:53;102211.03;;;8.17;100.00
48668;BME280;34453;52.198;5.004;2023-04-20T05:45:18;102206.66;;;8.18;100.00
48668;BME280;34453;52.198;5.004;2023-04-20T05:47:54;102218.31;;;8.12;100.00
48668;BME280;34453;52.198;5.004;2023-04-20T05:50:22;102222.69;;;8.12;100.00
48668;BME280;34453;52.198;5.004;2023-04-20T05:52:47;102199.31;;;8.10;100.00
48668;BME280;34453;52.198;5.004;2023-04-20T05:55:13;102219.78;;;8.02;100.00
48668;BME280;34453;52.198;5.004;2023-04-20T05:57:38;102215.31;;;8.04;100.00
48668;BME280;34453;52.198;5.004;2023-04-20T06:00:12;102219.78;;;8.02;100.00
48668;BME280;34453;52.198;5.004;2023-04-20T06:02:38;102221.47;;;8.03;100.00
48668;BME280;34453;52.198;5.004;2023-04-20T06:05:04;102214.41;;;8.05;100.00
48668;BME280;34453;52.198;5.004;2023-04-20T06:07:30;102208.16;;;8.07;100.00
48668;BME280;34453;52.198;5.004;2023-04-20T06:09:56;102200.34;;;8.07;100.00
48668;BME280;34453;52.198;5.004;2023-04-20T06:12:21;102213.09;;;8.12;100.00
48668;BME280;34453;52.198;5.004;2023-04-20T06:14:47;102210.78;;;8.07;100.00
48668;BME280;34453;52.198;5.004;2023-04-20T06:17:12;102205.84;;;8.03;100.00
48668;BME280;34453;52.198;5.004;2023-04-20T06:19:38;102212.78;;;8.02;100.00
48668;BME280;34453;52.198;5.004;2023-04-20T06:22:07;102208.44;;;8.03;100.00
48668;BME280;34453;52.198;5.004;2023-04-20T06:24:33;102213.06;;;7.98;100.00
48668;BME280;34453;52.198;5.004;2023-04-20T06:26:59;102200.41;;;7.92;100.00
48668;BME280;34453;52.198;5.004;2023-04-20T06:29:26;102198.38;;;7.97;100.00
48668;BME280;34453;52.198;5.004;2023-04-20T06:31:52;102195.09;;;7.93;100.00
48668;BME280;34453;52.198;5.004;2023-04-20T06:34:17;102197.69;;;7.93;100.00
48668;BME280;34453;52.198;5.004;2023-04-20T06:36:43;102193.97;;;7.83;100.00
48668;BME280;34453;52.198;5.004;2023-04-20T06:39:08;102186.72;;;7.74;100.00
48668;BME280;34453;52.198;5.004;2023-04-20T06:41:36;102178.50;;;7.65;100.00
48668;BME280;34453;52.198;5.004;2023-04-20T06:44:02;102188.22;;;7.62;100.00
48668;BME280;34453;52.198;5.004;2023-04-20T06:46:28;102175.31;;;7.60;100.00
48668;BME280;34453;52.198;5.004;2023-04-20T06:48:53;102185.56;;;7.63;100.00
48668;BME280;34453;52.198;5.004;2023-04-20T06:51:19;102181.19;;;7.64;100.00
48668;BME280;34453;52.198;5.004;2023-04-20T06:53:44;102175.22;;;7.62;100.00
48668;BME280;34453;52.198;5.004;2023-04-20T06:56:10;102187.13;;;7.66;100.00
48668;BME280;34453;52.198;5.004;2023-04-20T06:58:36;102192.69;;;7.60;100.00
48668;BME280;34453;52.198;5.004;2023-04-20T07:01:02;102184.72;;;7.63;100.00
48668;BME280;34453;52.198;5.004;2023-04-20T07:03:27;102180.63;;;7.59;100.00
48668;BME280;34453;52.198;5.004;2023-04-20T07:05:53;102192.63;;;7.61;100.00
48668;BME280;34453;52.198;5.004;2023-04-20T07:08:19;102197.00;;;7.61;100.00
48668;BME280;34453;52.198;5.004;2023-04-20T07:10:45;102197.16;;;7.58;100.00
48668;BME280;34453;52.198;5.004;2023-04-20T07:13:10;102199.13;;;7.54;100.00
48668;BME280;34453;52.198;5.004;2023-04-20T07:15:36;102182.31;;;7.44;100.00
48668;BME280;34453;52.198;5.004;2023-04-20T07:18:01;102179.22;;;7.37;100.00
48668;BME280;34453;52.198;5.004;2023-04-20T07:20:27;102195.56;;;7.25;100.00
48668;BME280;34453;52.198;5.004;2023-04-20T07:22:52;102199.66;;;7.13;100.00
48668;BME280;34453;52.198;5.004;2023-04-20T07:25:18;102201.88;;;7.05;100.00
48668;BME280;34453;52.198;5.004;2023-04-20T07:27:43;102195.06;;;7.02;100.00
48668;BME280;34453;52.198;5.004;2023-04-20T07:30:09;102202.78;;;6.88;100.00
48668;BME280;34453;52.198;5.004;2023-04-20T07:32:36;102206.97;;;6.91;100.00
48668;BME280;34453;52.198;5.004;2023-04-20T07:35:02;102210.34;;;6.77;100.00
48668;BME280;34453;52.198;5.004;2023-04-20T07:37:28;102207.91;;;6.74;100.00
48668;BME280;34453;52.198;5.004;2023-04-20T07:39:53;102213.50;;;6.66;100.00
48668;BME280;34453;52.198;5.004;2023-04-20T07:42:19;102209.63;;;6.57;100.00
48668;BME280;34453;52.198;5.004;2023-04-20T07:44:46;102214.31;;;6.51;100.00
48668;BME280;34453;52.198;5.004;2023-04-20T07:47:12;102207.59;;;6.47;100.00
48668;BME280;34453;52.198;5.004;2023-04-20T07:49:38;102220.53;;;6.48;100.00
48668;BME280;34453;52.198;5.004;2023-04-20T07:52:05;102204.75;;;6.51;100.00
48668;BME280;34453;52.198;5.004;2023-04-20T07:54:31;102206.66;;;6.65;100.00
48668;BME280;34453;52.198;5.004;2023-04-20T07:56:57;102216.19;;;6.64;100.00
48668;BME280;34453;52.198;5.004;2023-04-20T07:59:23;102223.22;;;6.62;100.00
48668;BME280;34453;52.198;5.004;2023-04-20T08:01:48;102222.56;;;6.59;100.00
48668;BME280;34453;52.198;5.004;2023-04-20T08:04:15;102229.38;;;6.61;100.00
48668;BME280;34453;52.198;5.004;2023-04-20T08:06:40;102222.81;;;6.54;100.00
48668;BME280;34453;52.198;5.004;2023-04-20T08:09:06;102226.06;;;6.58;100.00
48668;BME280;34453;52.198;5.004;2023-04-20T08:11:32;102219.47;;;6.52;100.00
48668;BME280;34453;52.198;5.004;2023-04-20T08:13:58;102205.63;;;6.52;100.00
48668;BME280;34453;52.198;5.004;2023-04-20T08:16:24;102210.56;;;6.40;100.00
48668;BME280;34453;52.198;5.004;2023-04-20T08:18:49;102218.53;;;6.53;100.00
48668;BME280;34453;52.198;5.004;2023-04-20T08:21:15;102205.94;;;6.46;100.00
48668;BME280;34453;52.198;5.004;2023-04-20T08:23:41;102203.41;;;6.44;100.00
48668;BME280;34453;52.198;5.004;2023-04-20T08:26:06;102201.56;;;6.46;100.00
48668;BME280;34453;52.198;5.004;2023-04-20T08:28:32;102196.97;;;6.51;100.00
48668;BME280;34453;52.198;5.004;2023-04-20T08:30:57;102194.88;;;6.58;100.00
48668;BME280;34453;52.198;5.004;2023-04-20T08:33:22;102179.97;;;6.61;100.00
48668;BME280;34453;52.198;5.004;2023-04-20T08:35:51;102177.59;;;6.57;100.00
48668;BME280;34453;52.198;5.004;2023-04-20T08:38:16;102179.19;;;6.59;100.00
48668;BME280;34453;52.198;5.004;2023-04-20T08:40:42;102180.97;;;6.75;100.00
48668;BME280;34453;52.198;5.004;2023-04-20T08:43:08;102189.72;;;6.90;100.00
48668;BME280;34453;52.198;5.004;2023-04-20T08:45:33;102180.19;;;7.04;100.00
48668;BME280;34453;52.198;5.004;2023-04-20T08:48:03;102190.59;;;7.04;100.00
48668;BME280;34453;52.198;5.004;2023-04-20T08:50:30;102189.84;;;7.02;100.00
48668;BME280;34453;52.198;5.004;2023-04-20T08:52:56;102185.34;;;6.90;100.00
48668;BME280;34453;52.198;5.004;2023-04-20T08:55:21;102193.72;;;6.95;100.00
48668;BME280;34453;52.198;5.004;2023-04-20T08:57:47;102185.00;;;6.96;100.00
48668;BME280;34453;52.198;5.004;2023-04-20T09:00:14;102175.44;;;6.97;100.00
48668;BME280;34453;52.198;5.004;2023-04-20T09:02:51;102167.13;;;6.90;100.00
48668;BME280;34453;52.198;5.004;2023-04-20T09:05:24;102170.50;;;6.92;100.00
48668;BME280;34453;52.198;5.004;2023-04-20T09:07:51;102173.16;;;6.91;100.00
48668;BME280;34453;52.198;5.004;2023-04-20T09:10:21;102168.22;;;6.86;100.00
48668;BME280;34453;52.198;5.004;2023-04-20T09:12:48;102166.63;;;6.83;100.00
48668;BME280;34453;52.198;5.004;2023-04-20T09:15:27;102160.50;;;7.00;100.00
48668;BME280;34453;52.198;5.004;2023-04-20T09:17:53;102169.22;;;6.99;100.00
48668;BME280;34453;52.198;5.004;2023-04-20T09:20:30;102168.97;;;6.88;100.00
48668;BME280;34453;52.198;5.004;2023-04-20T09:22:56;102161.91;;;7.06;100.00
48668;BME280;34453;52.198;5.004;2023-04-20T09:25:23;102159.50;;;7.03;100.00
48668;BME280;34453;52.198;5.004;2023-04-20T09:28:00;102147.03;;;7.08;100.00
48668;BME280;34453;52.198;5.004;2023-04-20T09:30:39;102154.47;;;7.30;100.00
48668;BME280;34453;52.198;5.004;2023-04-20T09:33:05;102164.72;;;7.33;100.00
48668;BME280;34453;52.198;5.004;2023-04-20T09:35:33;102156.47;;;7.41;100.00
48668;BME280;34453;52.198;5.004;2023-04-20T09:37:58;102148.34;;;7.31;100.00
48668;BME280;34453;52.198;5.004;2023-04-20T09:40:24;102160.47;;;7.46;100.00
48668;BME280;34453;52.198;5.004;2023-04-20T09:42:52;102159.78;;;7.59;100.00
48668;BME280;34453;52.198;5.004;2023-04-20T09:45:17;102141.19;;;7.65;100.00
48668;BME280;34453;52.198;5.004;2023-04-20T09:47:43;102140.84;;;7.85;100.00
48668;BME280;34453;52.198;5.004;2023-04-20T09:50:12;102135.28;;;7.92;100.00
48668;BME280;34453;52.198;5.004;2023-04-20T09:52:38;102132.84;;;8.32;100.00
48668;BME280;34453;52.198;5.004;2023-04-20T09:55:04;102128.53;;;8.30;100.00
48668;BME280;34453;52.198;5.004;2023-04-20T09:57:33;102130.78;;;8.51;100.00
48668;BME280;34453;52.198;5.004;2023-04-20T09:59:59;102121.38;;;8.90;100.00
48668;BME280;34453;52.198;5.004;2023-04-20T10:02:26;102112.41;;;8.94;100.00
48668;BME280;34453;52.198;5.004;2023-04-20T10:04:55;102116.91;;;8.78;100.00
48668;BME280;34453;52.198;5.004;2023-04-20T10:07:29;102118.66;;;8.36;100.00
48668;BME280;34453;52.198;5.004;2023-04-20T10:10:05;102114.75;;;8.28;100.00
48668;BME280;34453;52.198;5.004;2023-04-20T10:12:31;102105.38;;;8.26;100.00
48668;BME280;34453;52.198;5.004;2023-04-20T10:14:57;102117.09;;;8.33;100.00
48668;BME280;34453;52.198;5.004;2023-04-20T10:17:29;102109.56;;;8.43;100.00
48668;BME280;34453;52.198;5.004;2023-04-20T10:19:55;102097.38;;;8.70;100.00
48668;BME280;34453;52.198;5.004;2023-04-20T10:22:27;102111.09;;;8.87;100.00
48668;BME280;34453;52.198;5.004;2023-04-20T10:24:55;102094.75;;;8.85;100.00
48668;BME280;34453;52.198;5.004;2023-04-20T10:27:21;102100.00;;;8.70;100.00
48668;BME280;34453;52.198;5.004;2023-04-20T10:29:46;102085.97;;;8.86;100.00
48668;BME280;34453;52.198;5.004;2023-04-20T10:32:26;102092.56;;;9.04;100.00
48668;BME280;34453;52.198;5.004;2023-04-20T10:35:02;102091.00;;;9.02;100.00
48668;BME280;34453;52.198;5.004;2023-04-20T10:37:28;102081.84;;;9.09;100.00
48668;BME280;34453;52.198;5.004;2023-04-20T10:39:54;102068.97;;;9.59;100.00
48668;BME280;34453;52.198;5.004;2023-04-20T10:42:19;102070.50;;;9.87;100.00
48668;BME280;34453;52.198;5.004;2023-04-20T10:44:52;102073.59;;;10.54;100.00
48668;BME280;34453;52.198;5.004;2023-04-20T10:47:30;102068.88;;;10.60;100.00
48668;BME280;34453;52.198;5.004;2023-04-20T10:50:07;102074.09;;;10.23;100.00
48668;BME280;34453;52.198;5.004;2023-04-20T10:52:34;102078.72;;;10.19;100.00
48668;BME280;34453;52.198;5.004;2023-04-20T10:55:03;102081.16;;;9.96;100.00
48668;BME280;34453;52.198;5.004;2023-04-20T10:57:29;102080.88;;;9.63;100.00
48668;BME280;34453;52.198;5.004;2023-04-20T10:59:55;102079.00;;;10.27;100.00
48668;BME280;34453;52.198;5.004;2023-04-20T11:02:20;102072.78;;;11.13;100.00
48668;BME280;34453;52.198;5.004;2023-04-20T11:04:46;102054.25;;;11.28;100.00
48668;BME280;34453;52.198;5.004;2023-04-20T11:07:11;102063.28;;;10.88;100.00
48668;BME280;34453;52.198;5.004;2023-04-20T11:09:40;102052.72;;;10.66;100.00
48668;BME280;34453;52.198;5.004;2023-04-20T11:12:09;102042.81;;;10.58;100.00
48668;BME280;34453;52.198;5.004;2023-04-20T11:14:50;102042.59;;;10.24;100.00
48668;BME280;34453;52.198;5.004;2023-04-20T11:17:16;102032.78;;;10.15;100.00
48668;BME280;34453;52.198;5.004;2023-04-20T11:19:42;102039.38;;;10.21;100.00
48668;BME280;34453;52.198;5.004;2023-04-20T11:22:07;102037.03;;;10.42;100.00
48668;BME280;34453;52.198;5.004;2023-04-20T11:24:33;102046.88;;;10.62;100.00
48668;BME280;34453;52.198;5.004;2023-04-20T11:27:00;102034.16;;;10.45;100.00
48668;BME280;34453;52.198;5.004;2023-04-20T11:29:33;102022.28;;;10.41;100.00
48668;BME280;34453;52.198;5.004;2023-04-20T11:32:02;102031.31;;;10.24;100.00
48668;BME280;34453;52.198;5.004;2023-04-20T11:34:28;102026.56;;;10.42;100.00
48668;BME280;34453;52.198;5.004;2023-04-20T11:36:54;102009.94;;;10.43;100.00
48668;BME280;34453;52.198;5.004;2023-04-20T11:39:26;102014.59;;;10.50;100.00
48668;BME280;34453;52.198;5.004;2023-04-20T11:41:53;102019.94;;;10.84;100.00
48668;BME280;34453;52.198;5.004;2023-04-20T11:44:21;102007.31;;;11.25;100.00
48668;BME280;34453;52.198;5.004;2023-04-20T11:46:47;102006.38;;;11.71;100.00
48668;BME280;34453;52.198;5.004;2023-04-20T11:49:16;102007.78;;;11.18;100.00
48668;BME280;34453;52.198;5.004;2023-04-20T11:51:42;101996.88;;;10.89;100.00
48668;BME280;34453;52.198;5.004;2023-04-20T11:54:08;101999.28;;;10.57;100.00
48668;BME280;34453;52.198;5.004;2023-04-20T11:56:33;102006.75;;;10.50;100.00
48668;BME280;34453;52.198;5.004;2023-04-20T11:58:59;102011.00;;;10.27;100.00
48668;BME280;34453;52.198;5.004;2023-04-20T12:01:24;102016.38;;;10.13;100.00
48668;BME280;34453;52.198;5.004;2023-04-20T12:03:50;102001.44;;;10.02;100.00
48668;BME280;34453;52.198;5.004;2023-04-20T12:06:15;102009.63;;;9.98;100.00
48668;BME280;34453;52.198;5.004;2023-04-20T12:08:40;102011.56;;;9.83;100.00
48668;BME280;34453;52.198;5.004;2023-04-20T12:11:07;102016.31;;;9.89;100.00
48668;BME280;34453;52.198;5.004;2023-04-20T12:13:32;102016.06;;;10.05;100.00
48668;BME280;34453;52.198;5.004;2023-04-20T12:15:58;102009.16;;;10.16;100.00
48668;BME280;34453;52.198;5.004;2023-04-20T12:18:23;102006.59;;;10.28;100.00
48668;BME280;34453;52.198;5.004;2023-04-20T12:20:49;101999.75;;;10.62;100.00
48668;BME280;34453;52.198;5.004;2023-04-20T12:23:15;101995.34;;;10.98;100.00
48668;BME280;34453;52.198;5.004;2023-04-20T12:25:40;101994.69;;;11.07;100.00
48668;BME280;34453;52.198;5.004;2023-04-20T12:28:07;101995.16;;;11.12;100.00
48668;BME280;34453;52.198;5.004;2023-04-20T12:30:33;101994.44;;;11.22;100.00
48668;BME280;34453;52.198;5.004;2023-04-20T12:33:03;101989.22;;;11.22;100.00
48668;BME280;34453;52.198;5.004;2023-04-20T12:35:28;101987.75;;;11.06;100.00
48668;BME280;34453;52.198;5.004;2023-04-20T12:37:54;101982.84;;;10.90;100.00
48668;BME280;34453;52.198;5.004;2023-04-20T12:40:20;101988.84;;;10.68;100.00
48668;BME280;34453;52.198;5.004;2023-04-20T12:42:46;101982.09;;;10.77;100.00